Terminal Aerodrome Forecast
Issued by NWS

Home | Current Version | Previous Version | Text Only | Print | Product List | Glossary On
Versions: 1 2 3 4 5 6 7 8 9 10 11 12 13
000
FTUS44 KTSA 211400 AAA
TAFFYV
TAF AMD
KFYV 211407Z 2114/2212 00000KT P6SM VCSH SCT025 OVC060
      TEMPO 2114/2118 3SM SHRA BR SCT010 OVC025
     FM212300 25005KT P6SM BKN025
     FM220300 32004KT P6SM BKN015
     FM220800 28003KT 3SM BR SKC=

USA.gov is the U.S. government's official web portal to all federal, state and local government web resources and services.